X  CloseMetar Aviation Weather Data     EKSB Sønderborg

Temperature

17°C Temperature

14°C Dewpoint

83% Humidity



Wind

23 KM/H

14 MPH

 6 M/S

12 KTS



90°
Due East
Current Conditions

Mostly Scattered Clouds Mostly Scattered Clouds
Pressure 1012.92 (hPa) - 29.91 (in)
Visibility 6.2 (mi) - 10 (km)
Airport
Airport-code EKSB

Location Sønderborg 40 (km)

Metar:
EKSB 231350Z 09012KT 9999 SCT020 BKN220 17/14 Q1013

Time: 23-09-2019 15:50